Time;durP1;ratioP1;P1;durP2;ratioP2;P2;SDS_P1;SDS_P2;PMS_P1;PMS_P2;Temp;Humidity;BMP_temperature;BMP_pressure;BME280_temperature;BME280_humidity;BME280_pressure;Samples;Min_cycle;Max_cycle;Signal;HPM_P1;HPM_P2
2022/04/27 00:01:21;;;;;;;3.53;1.60;;;;;;;;;;4953580;28;20058;-59
2022/04/27 00:03:48;;;;;;;3.90;1.55;;;;;;;;;;4971514;28;20054;-58
2022/04/27 00:06:16;;;;;;;4.35;1.70;;;;;;;;;;4964557;28;20054;-59
2022/04/27 00:08:46;;;;;;;5.05;1.70;;;;;;;;;;4952123;28;20051;-59
2022/04/27 00:11:12;;;;;;;5.22;1.67;;;;;;;;;;4947305;28;20051;-58
2022/04/27 00:13:39;;;;;;;3.85;1.98;;;;;;;;;;4951816;28;20054;-58
2022/04/27 00:16:06;;;;;;;5.10;1.80;;;;;;;;;;4951164;28;20090;-58
2022/04/27 00:18:32;;;;;;;6.25;2.20;;;;;;;;;;4949598;28;20093;-60
2022/04/27 00:20:59;;;;;;;8.55;3.03;;;;;;;;;;4967487;28;20059;-60
2022/04/27 00:23:30;;;;;;;4.40;1.90;;;;;;;;;;4963734;28;20055;-58
2022/04/27 00:25:57;;;;;;;8.02;2.78;;;;;;;;;;4950768;28;20081;-59
2022/04/27 00:28:23;;;;;;;5.80;1.83;;;;;;;;;;4961019;28;20074;-59
2022/04/27 00:30:50;;;;;;;4.97;1.70;;;;;;;;;;4969385;28;20472;-59
2022/04/27 00:33:17;;;;;;;2.78;1.48;;;;;;;;;;4957632;28;20058;-62
2022/04/27 00:35:44;;;;;;;2.90;1.65;;;;;;;;;;4946486;28;20059;-60
2022/04/27 00:38:11;;;;;;;2.60;1.42;;;;;;;;;;4938043;28;20051;-58
2022/04/27 00:40:38;;;;;;;4.20;1.60;;;;;;;;;;4945579;29;20067;-59
2022/04/27 00:43:05;;;;;;;3.10;1.70;;;;;;;;;;4933903;29;20051;-58
2022/04/27 00:45:32;;;;;;;5.45;2.08;;;;;;;;;;4950675;29;20303;-59
2022/04/27 00:47:58;;;;;;;5.63;1.90;;;;;;;;;;4941545;28;20063;-60
2022/04/27 00:50:25;;;;;;;5.43;2.05;;;;;;;;;;4938267;29;20059;-58
2022/04/27 00:52:52;;;;;;;4.43;2.15;;;;;;;;;;4946617;29;20054;-58
2022/04/27 00:55:19;;;;;;;5.13;2.15;;;;;;;;;;4959207;28;20424;-61
2022/04/27 00:57:47;;;;;;;7.93;1.80;;;;;;;;;;4966634;28;20065;-58
2022/04/27 01:00:14;;;;;;;3.85;1.77;;;;;;;;;;4969752;28;20076;-59
2022/04/27 01:02:41;;;;;;;4.88;2.13;;;;;;;;;;4969974;28;20063;-59
2022/04/27 01:05:09;;;;;;;6.47;2.05;;;;;;;;;;4962367;28;20066;-60
2022/04/27 01:07:37;;;;;;;3.70;2.03;;;;;;;;;;4970330;28;20113;-59
2022/04/27 01:10:04;;;;;;;4.93;2.40;;;;;;;;;;4958774;28;20069;-59
2022/04/27 01:12:38;;;;;;;4.38;2.10;;;;;;;;;;4950368;29;20055;-60
2022/04/27 01:15:07;;;;;;;7.43;2.55;;;;;;;;;;4959513;28;20066;-61
2022/04/27 01:17:33;;;;;;;8.68;2.67;;;;;;;;;;4969507;28;20065;-58
2022/04/27 01:20:00;;;;;;;4.35;2.10;;;;;;;;;;4964673;28;20042;-60
2022/04/27 01:22:29;;;;;;;6.20;2.40;;;;;;;;;;4968903;28;20051;-58
2022/04/27 01:24:58;;;;;;;4.85;2.35;;;;;;;;;;4955372;28;20154;-62
2022/04/27 01:27:24;;;;;;;;;;;;;;;;;;4949904;29;20090;-61
2022/04/27 01:29:51;;;;;;;4.25;2.10;;;;;;;;;;4945350;28;19923;-59
2022/04/27 01:32:18;;;;;;;4.38;2.15;;;;;;;;;;4949689;29;20067;-60
2022/04/27 01:34:45;;;;;;;5.18;2.45;;;;;;;;;;4949026;28;20057;-58
2022/04/27 01:39:57;;;;;;;5.72;2.28;;;;;;;;;;4959607;28;20047;-60
2022/04/27 01:42:24;;;;;;;4.72;2.40;;;;;;;;;;4949223;28;20051;-59
2022/04/27 01:44:51;;;;;;;4.28;2.22;;;;;;;;;;4946752;28;20067;-59
2022/04/27 01:47:20;;;;;;;7.82;3.70;;;;;;;;;;4968848;28;20054;-58
2022/04/27 01:49:47;;;;;;;6.57;2.67;;;;;;;;;;4963804;28;20113;-59
2022/04/27 01:55:13;;;;;;;4.57;2.40;;;;;;;;;;4888444;29;20063;-59
2022/04/27 01:57:40;;;;;;;4.93;2.42;;;;;;;;;;4894871;29;20056;-59
2022/04/27 02:00:07;;;;;;;6.13;2.78;;;;;;;;;;4924624;28;20070;-61
2022/04/27 02:02:34;;;;;;;9.60;3.22;;;;;;;;;;4964344;28;20078;-59
2022/04/27 02:05:01;;;;;;;5.38;2.58;;;;;;;;;;4952138;28;20060;-59
2022/04/27 02:07:27;;;;;;;7.50;2.42;;;;;;;;;;4945233;28;20055;-59
2022/04/27 02:09:54;;;;;;;6.75;2.85;;;;;;;;;;4947521;29;20047;-58
2022/04/27 02:12:22;;;;;;;6.07;2.67;;;;;;;;;;4944573;29;20055;-58
2022/04/27 02:14:49;;;;;;;4.60;2.38;;;;;;;;;;4933426;29;20376;-59
2022/04/27 02:17:15;;;;;;;5.63;2.72;;;;;;;;;;4933114;28;20059;-58
2022/04/27 02:19:42;;;;;;;9.35;2.53;;;;;;;;;;4929947;29;20405;-58
2022/04/27 02:22:13;;;;;;;5.32;2.60;;;;;;;;;;4925087;29;20059;-58
2022/04/27 02:24:39;;;;;;;6.47;3.00;;;;;;;;;;4930523;29;20066;-58
2022/04/27 02:27:06;;;;;;;7.20;3.28;;;;;;;;;;4931107;28;20063;-60
2022/04/27 02:29:34;;;;;;;6.40;2.80;;;;;;;;;;4955898;28;20053;-57
2022/04/27 02:32:02;;;;;;;7.30;2.70;;;;;;;;;;4957838;28;20051;-58
2022/04/27 02:34:29;;;;;;;6.70;2.67;;;;;;;;;;4949823;29;20103;-58
2022/04/27 02:36:57;;;;;;;6.82;3.00;;;;;;;;;;4945576;28;20059;-60
2022/04/27 02:39:24;;;;;;;6.60;3.08;;;;;;;;;;4969199;28;20050;-62
2022/04/27 02:41:50;;;;;;;8.40;2.80;;;;;;;;;;4968405;28;20054;-58
2022/04/27 02:44:17;;;;;;;8.05;2.78;;;;;;;;;;4948383;28;20058;-60
2022/04/27 02:46:45;;;;;;;6.50;2.72;;;;;;;;;;4948408;28;20126;-59
2022/04/27 02:51:56;;;;;;;6.38;2.95;;;;;;;;;;4968237;28;20145;-61
2022/04/27 02:54:23;;;;;;;5.20;2.65;;;;;;;;;;4951288;28;20047;-59
2022/04/27 02:56:50;;;;;;;5.05;2.63;;;;;;;;;;4949111;29;20047;-60
2022/04/27 02:59:17;;;;;;;5.10;2.72;;;;;;;;;;4929632;29;20082;-60
2022/04/27 03:01:45;;;;;;;6.00;2.83;;;;;;;;;;4929489;29;20055;-61
2022/04/27 03:04:11;;;;;;;6.65;2.97;;;;;;;;;;4924449;29;20052;-58
2022/04/27 03:06:38;;;;;;;4.80;2.60;;;;;;;;;;4929167;29;20052;-59
2022/04/27 03:09:04;;;;;;;8.65;3.28;;;;;;;;;;4924961;29;20303;-60
2022/04/27 03:11:31;;;;;;;7.05;2.97;;;;;;;;;;4943518;29;20055;-59
2022/04/27 03:13:57;;;;;;;7.82;3.13;;;;;;;;;;4942393;28;20051;-60
2022/04/27 03:16:24;;;;;;;6.03;2.97;;;;;;;;;;4948724;29;20051;-61
2022/04/27 03:18:54;;;;;;;6.13;2.80;;;;;;;;;;4944498;28;20043;-61
2022/04/27 03:21:21;;;;;;;6.13;2.78;;;;;;;;;;4948796;29;20062;-62
2022/04/27 03:23:48;;;;;;;7.35;3.00;;;;;;;;;;4959036;28;21082;-59
2022/04/27 03:26:14;;;;;;;7.70;2.95;;;;;;;;;;4968179;28;20117;-58
2022/04/27 03:28:41;;;;;;;6.88;2.83;;;;;;;;;;4966798;28;20065;-62
2022/04/27 03:31:07;;;;;;;6.03;3.03;;;;;;;;;;4947992;28;20111;-58
2022/04/27 03:33:34;;;;;;;7.75;2.95;;;;;;;;;;4948361;28;20126;-61
2022/04/27 03:36:02;;;;;;;6.57;3.25;;;;;;;;;;4960084;28;20058;-60
2022/04/27 03:38:29;;;;;;;7.13;3.53;;;;;;;;;;4968088;28;20134;-59
2022/04/27 03:40:56;;;;;;;7.05;2.95;;;;;;;;;;4962249;28;20050;-58
2022/04/27 03:43:23;;;;;;;9.82;3.15;;;;;;;;;;4967670;28;20054;-59
2022/04/27 03:45:50;;;;;;;8.15;2.67;;;;;;;;;;4962203;28;20054;-59
2022/04/27 03:48:16;;;;;;;7.38;3.08;;;;;;;;;;4968074;28;20063;-57
2022/04/27 03:50:43;;;;;;;6.80;3.17;;;;;;;;;;4952040;28;20090;-61
2022/04/27 03:53:13;;;;;;;8.07;3.38;;;;;;;;;;4948628;28;20055;-61
2022/04/27 03:55:40;;;;;;;8.35;3.55;;;;;;;;;;4943677;28;20059;-59
2022/04/27 03:58:06;;;;;;;6.38;3.03;;;;;;;;;;4947697;28;20059;-60
2022/04/27 04:00:34;;;;;;;6.40;2.88;;;;;;;;;;4950685;28;20495;-57
2022/04/27 04:03:00;;;;;;;7.75;3.08;;;;;;;;;;4970314;28;20054;-59
2022/04/27 04:05:27;;;;;;;6.35;2.90;;;;;;;;;;4966728;28;20070;-60
2022/04/27 04:07:53;;;;;;;10.00;3.10;;;;;;;;;;4951078;28;20051;-60
2022/04/27 04:10:22;;;;;;;7.47;3.00;;;;;;;;;;4947703;28;20054;-58
2022/04/27 04:12:48;;;;;;;6.53;3.22;;;;;;;;;;4970103;28;20043;-58
2022/04/27 04:15:15;;;;;;;6.65;3.08;;;;;;;;;;4971344;28;20043;-60
2022/04/27 04:17:45;;;;;;;7.45;2.67;;;;;;;;;;4967486;28;20085;-60
2022/04/27 04:20:12;;;;;;;8.05;2.80;;;;;;;;;;4970139;28;20065;-60
2022/04/27 04:22:41;;;;;;;6.75;2.97;;;;;;;;;;4964329;28;20062;-61
2022/04/27 04:30:38;;;;;;;6.25;2.47;;;;;;;;;;4949439;28;20077;-60
2022/04/27 04:33:06;;;;;;;6.10;2.63;;;;;;;;;;4947637;28;20458;-61
2022/04/27 04:35:32;;;;;;;5.20;2.65;;;;;;;;;;4951780;28;20051;-59
2022/04/27 04:37:59;;;;;;;5.03;2.60;;;;;;;;;;4945996;28;20073;-62
2022/04/27 04:40:25;;;;;;;6.15;2.63;;;;;;;;;;4950718;28;20075;-59
2022/04/27 04:42:54;;;;;;;5.60;2.65;;;;;;;;;;4947032;28;20051;-62
2022/04/27 04:45:23;;;;;;;6.78;2.47;;;;;;;;;;4949843;28;20305;-61
2022/04/27 04:47:50;;;;;;;13.85;3.08;;;;;;;;;;4957288;28;20054;-58
2022/04/27 04:50:16;;;;;;;7.70;2.53;;;;;;;;;;4970283;28;20054;-60
2022/04/27 04:52:43;;;;;;;5.47;2.47;;;;;;;;;;4968362;28;20054;-60
2022/04/27 04:55:10;;;;;;;7.20;3.03;;;;;;;;;;4969986;28;20046;-60
2022/04/27 04:57:36;;;;;;;7.28;2.95;;;;;;;;;;4962209;28;20053;-60
2022/04/27 05:00:06;;;;;;;6.80;2.90;;;;;;;;;;4950775;28;20047;-58
2022/04/27 05:02:33;;;;;;;6.72;2.95;;;;;;;;;;4947930;28;20054;-60
2022/04/27 05:05:02;;;;;;;4.60;2.33;;;;;;;;;;4950728;28;20051;-60
2022/04/27 05:07:29;;;;;;;7.22;2.50;;;;;;;;;;4951488;28;20050;-59
2022/04/27 05:09:56;;;;;;;6.18;2.88;;;;;;;;;;4962459;28;20074;-59
2022/04/27 05:12:24;;;;;;;7.50;2.95;;;;;;;;;;4970083;28;20051;-57
2022/04/27 05:14:51;;;;;;;6.57;2.78;;;;;;;;;;4970464;28;20069;-58
2022/04/27 05:17:19;;;;;;;5.57;2.60;;;;;;;;;;4969943;28;20081;-57
2022/04/27 05:19:48;;;;;;;5.82;2.75;;;;;;;;;;4963856;28;20058;-57
2022/04/27 05:22:17;;;;;;;7.53;3.03;;;;;;;;;;4970187;28;20065;-58
2022/04/27 05:24:44;;;;;;;9.30;2.95;;;;;;;;;;4956886;28;20051;-58
2022/04/27 05:27:12;;;;;;;7.13;3.25;;;;;;;;;;4951197;28;20069;-59
2022/04/27 05:32:27;;;;;;;6.13;2.95;;;;;;;;;;4949879;28;20059;-59
2022/04/27 05:34:54;;;;;;;7.45;2.80;;;;;;;;;;4951128;28;20074;-58
2022/04/27 05:37:21;;;;;;;7.00;3.10;;;;;;;;;;4950492;28;20050;-57
2022/04/27 05:39:48;;;;;;;5.32;2.38;;;;;;;;;;4951430;28;20051;-58
2022/04/27 05:42:15;;;;;;;6.50;3.10;;;;;;;;;;4967679;28;20046;-58
2022/04/27 05:44:42;;;;;;;6.63;3.13;;;;;;;;;;4949275;28;20066;-60
2022/04/27 05:47:08;;;;;;;5.72;3.10;;;;;;;;;;4950106;28;20150;-57
2022/04/27 05:49:36;;;;;;;10.38;3.92;;;;;;;;;;4948027;28;20057;-59
2022/04/27 05:52:04;;;;;;;7.28;3.45;;;;;;;;;;4969690;28;20059;-58
2022/04/27 05:54:31;;;;;;;10.33;3.97;;;;;;;;;;4969105;28;20417;-59
2022/04/27 05:56:57;;;;;;;11.55;4.40;;;;;;;;;;4946828;28;20055;-58
2022/04/27 05:59:24;;;;;;;8.55;3.88;;;;;;;;;;4949569;28;20110;-58
2022/04/27 06:01:53;;;;;;;6.28;3.13;;;;;;;;;;4960164;28;20059;-57
2022/04/27 06:04:19;;;;;;;13.32;3.35;;;;;;;;;;4969036;28;20059;-60
2022/04/27 06:06:47;;;;;;;6.47;3.00;;;;;;;;;;4949419;28;20059;-58
2022/04/27 06:09:14;;;;;;;14.32;4.45;;;;;;;;;;4949469;28;20059;-59
2022/04/27 06:11:41;;;;;;;7.50;3.38;;;;;;;;;;4945804;28;20043;-58
2022/04/27 06:14:08;;;;;;;8.63;3.13;;;;;;;;;;4949788;28;20051;-59
2022/04/27 06:16:34;;;;;;;7.60;3.47;;;;;;;;;;4944437;28;20066;-61
2022/04/27 06:19:01;;;;;;;8.30;3.95;;;;;;;;;;4949379;28;20059;-58
2022/04/27 06:21:31;;;;;;;7.18;3.60;;;;;;;;;;4947443;28;20075;-59
2022/04/27 06:23:59;;;;;;;13.30;4.57;;;;;;;;;;4949870;28;20051;-58
2022/04/27 06:26:26;;;;;;;;;;;;;;;;;;4945395;28;20071;-58
2022/04/27 06:28:53;;;;;;;;;;;;;;;;;;4949717;28;19977;-59
2022/04/27 06:31:19;;;;;;;;;;;;;;;;;;4951600;28;19930;-58
2022/04/27 06:33:46;;;;;;;;;;;;;;;;;;4969110;28;19941;-58
2022/04/27 06:36:13;;;;;;;;;;;;;;;;;;4965636;28;19922;-59
2022/04/27 06:38:39;;;;;;;;;;;;;;;;;;4967297;28;19926;-59
2022/04/27 06:41:06;;;;;;;;;;;;;;;;;;4958179;28;19926;-60
2022/04/27 06:43:32;;;;;;;;;;;;;;;;;;4950582;28;19949;-59
2022/04/27 06:45:59;;;;;;;;;;;;;;;;;;4949593;28;19942;-58
2022/04/27 06:48:25;;;;;;;;;;;;;;;;;;4945203;28;19933;-59
2022/04/27 06:50:52;;;;;;;;;;;;;;;;;;4949222;28;19926;-60
2022/04/27 06:53:18;;;;;;;;;;;;;;;;;;4944529;28;19930;-58
2022/04/27 06:55:45;;;;;;;;;;;;;;;;;;4948984;28;19926;-58
2022/04/27 06:58:11;;;;;;;;;;;;;;;;;;4955346;28;20018;-59
2022/04/27 07:00:37;;;;;;;;;;;;;;;;;;4968443;28;19926;-58
2022/04/27 07:03:04;;;;;;;;;;;;;;;;;;4964795;28;19933;-58
2022/04/27 07:05:30;;;;;;;;;;;;;;;;;;4965642;28;19930;-58
2022/04/27 07:07:56;;;;;;;;;;;;;;;;;;4962561;28;19929;-59
2022/04/27 07:10:22;;;;;;;;;;;;;;;;;;4962958;28;19922;-60
2022/04/27 07:12:50;;;;;;;;;;;;;;;;;;4963344;28;19937;-61
2022/04/27 07:15:16;;;;;;;;;;;;;;;;;;4968455;28;19926;-60
2022/04/27 07:17:43;;;;;;;;;;;;;;;;;;4967803;28;19922;-60
2022/04/27 07:20:09;;;;;;;;;;;;;;;;;;4963885;28;20033;-58
2022/04/27 07:22:36;;;;;;;;;;;;;;;;;;4968395;28;19922;-60
2022/04/27 07:25:02;;;;;;;;;;;;;;;;;;4965363;28;19922;-60
2022/04/27 07:27:31;;;;;;;;;;;;;;;;;;4969238;28;19921;-62
2022/04/27 07:29:57;;;;;;;;;;;;;;;;;;4950819;28;19933;-59
2022/04/27 07:32:24;;;;;;;;;;;;;;;;;;4949083;28;19927;-61
2022/04/27 07:34:51;;;;;;;;;;;;;;;;;;4957367;28;19926;-62
2022/04/27 07:37:18;;;;;;;;;;;;;;;;;;4972649;28;19922;-59
2022/04/27 07:39:44;;;;;;;;;;;;;;;;;;4958877;28;19985;-59
2022/04/27 07:42:12;;;;;;;;;;;;;;;;;;4953382;28;19933;-58
2022/04/27 07:44:38;;;;;;;;;;;;;;;;;;4953982;28;19965;-61
2022/04/27 07:47:04;;;;;;;;;;;;;;;;;;4962878;28;20339;-62
2022/04/27 07:49:31;;;;;;;;;;;;;;;;;;4962601;28;19922;-62
2022/04/27 07:51:59;;;;;;;;;;;;;;;;;;4952822;28;19998;-59
2022/04/27 07:54:25;;;;;;;;;;;;;;;;;;4950277;28;20021;-59
2022/04/27 07:56:51;;;;;;;;;;;;;;;;;;4972587;28;19954;-59
2022/04/27 07:59:18;;;;;;;;;;;;;;;;;;4972009;28;19922;-59
2022/04/27 08:01:44;;;;;;;;;;;;;;;;;;4950517;28;19926;-59
2022/04/27 08:04:11;;;;;;;;;;;;;;;;;;4972520;28;19930;-59
2022/04/27 08:06:37;;;;;;;;;;;;;;;;;;4964251;28;19951;-59
2022/04/27 08:09:04;;;;;;;;;;;;;;;;;;4968577;28;19926;-62
2022/04/27 08:11:30;;;;;;;;;;;;;;;;;;4967225;28;19926;-59
2022/04/27 08:13:56;;;;;;;;;;;;;;;;;;4967987;28;19933;-58
2022/04/27 08:16:23;;;;;;;;;;;;;;;;;;4962823;28;19926;-59
2022/04/27 08:18:50;;;;;;;;;;;;;;;;;;4965516;28;20130;-59
2022/04/27 08:21:16;;;;;;;;;;;;;;;;;;4968032;28;19933;-58
2022/04/27 08:23:42;;;;;;;;;;;;;;;;;;4968450;28;19926;-58
2022/04/27 08:26:10;;;;;;;;;;;;;;;;;;4963002;28;19926;-60
2022/04/27 08:28:37;;;;;;;;;;;;;;;;;;4967365;28;19930;-60
2022/04/27 08:31:03;;;;;;;;;;;;;;;;;;4961942;28;19932;-58
2022/04/27 08:33:30;;;;;;;;;;;;;;;;;;4967991;28;20354;-59
2022/04/27 08:35:57;;;;;;;;;;;;;;;;;;4967259;28;19930;-59
2022/04/27 08:38:24;;;;;;;;;;;;;;;;;;4960128;28;19922;-59
2022/04/27 08:41:35;;;;;;;;;;;;;;;;;;4870188;27;19979;-60
2022/04/27 08:44:02;;;;;;;;;;;;;;;;;;4957025;28;19935;-60
2022/04/27 08:46:53;;;;;;;26.23;12.27;;;;;;;;;;5073876;27;20381;-59
2022/04/27 08:49:19;;;;;;;29.77;12.02;;;;;;;;;;5043156;28;20072;-58
2022/04/27 08:51:46;;;;;;;68.72;28.73;;;;;;;;;;5036636;28;20461;-58
2022/04/27 08:54:13;;;;;;;8.70;3.05;;;;;;;;;;4992311;28;20054;-61
2022/04/27 08:56:40;;;;;;;35.30;17.48;;;;;;;;;;5048288;28;20132;-59
2022/04/27 08:59:08;;;;;;;14.02;4.30;;;;;;;;;;5023987;28;20041;-61
2022/04/27 09:01:35;;;;;;;11.50;5.25;;;;;;;;;;5028766;28;20136;-60
2022/04/27 09:04:19;;;;;;;32.63;15.40;;;;;;;;;;5023894;28;20046;-60
2022/04/27 09:06:47;;;;;;;18.88;9.45;;;;;;;;;;5032932;28;20143;-60
2022/04/27 09:09:28;;;;;;;19.00;8.00;;;;;;;;;;5042004;28;20666;-60
2022/04/27 09:11:57;;;;;;;22.83;8.20;;;;;;;;;;5043890;28;20045;-59
2022/04/27 09:14:36;;;;;;;26.73;11.68;;;;;;;;;;5024855;28;20064;-61
2022/04/27 09:22:28;;;;;;;15.48;5.45;;;;;;;;;;4983697;28;20091;-59
2022/04/27 09:24:57;;;;;;;5.72;2.42;;;;;;;;;;5030983;28;20046;-58
2022/04/27 09:27:25;;;;;;;28.80;13.05;;;;;;;;;;5046189;28;20050;-58
2022/04/27 09:29:55;;;;;;;7.35;2.80;;;;;;;;;;5041262;28;20156;-59
2022/04/27 09:32:23;;;;;;;13.13;5.15;;;;;;;;;;5045300;28;20083;-60
2022/04/27 09:34:51;;;;;;;14.15;5.10;;;;;;;;;;5040683;28;20057;-61
2022/04/27 09:37:18;;;;;;;21.27;9.32;;;;;;;;;;5046245;28;20049;-60
2022/04/27 09:39:45;;;;;;;7.35;3.03;;;;;;;;;;5017949;28;20077;-59
2022/04/27 09:42:16;;;;;;;7.75;2.25;;;;;;;;;;5031720;28;20065;-59
2022/04/27 09:44:42;;;;;;;8.63;3.03;;;;;;;;;;5028938;28;20053;-60
2022/04/27 09:47:09;;;;;;;24.70;11.90;;;;;;;;;;5028749;28;20058;-59
2022/04/27 09:49:37;;;;;;;22.33;9.10;;;;;;;;;;5043400;28;20054;-59
2022/04/27 09:52:06;;;;;;;27.70;13.20;;;;;;;;;;5031829;28;20165;-57
2022/04/27 09:54:34;;;;;;;10.75;4.43;;;;;;;;;;5028108;28;20049;-58
2022/04/27 09:57:02;;;;;;;23.80;10.40;;;;;;;;;;5039228;28;20050;-58
2022/04/27 09:59:30;;;;;;;19.63;8.75;;;;;;;;;;5017188;28;20056;-59
2022/04/27 10:02:01;;;;;;;10.65;4.25;;;;;;;;;;5010842;28;20060;-58
2022/04/27 10:04:29;;;;;;;9.60;3.00;;;;;;;;;;5031977;28;20374;-60
2022/04/27 10:06:58;;;;;;;24.58;10.23;;;;;;;;;;5019103;28;20107;-58
2022/04/27 10:09:27;;;;;;;8.75;3.70;;;;;;;;;;5032651;28;20550;-61
2022/04/27 10:11:55;;;;;;;12.13;4.75;;;;;;;;;;5006970;28;20093;-59
2022/04/27 10:14:25;;;;;;;8.50;3.38;;;;;;;;;;5009282;28;20046;-58
2022/04/27 10:16:52;;;;;;;6.13;2.47;;;;;;;;;;5019720;28;20085;-58
2022/04/27 10:19:19;;;;;;;6.32;1.88;;;;;;;;;;5025746;28;20116;-59
2022/04/27 10:21:57;;;;;;;7.78;2.28;;;;;;;;;;5020079;28;20104;-60
2022/04/27 10:24:42;;;;;;;12.88;4.45;;;;;;;;;;5009693;28;20062;-58
2022/04/27 10:27:18;;;;;;;14.68;6.45;;;;;;;;;;5004792;28;20054;-58
2022/04/27 10:29:46;;;;;;;13.18;6.53;;;;;;;;;;5008541;28;20076;-57
2022/04/27 10:32:12;;;;;;;7.10;3.00;;;;;;;;;;5003937;28;20054;-58
2022/04/27 10:34:39;;;;;;;10.32;4.38;;;;;;;;;;5009413;28;20060;-58
2022/04/27 10:37:06;;;;;;;11.88;3.88;;;;;;;;;;5005548;28;20054;-59
2022/04/27 10:39:33;;;;;;;11.23;4.85;;;;;;;;;;5010612;28;20041;-58
2022/04/27 10:42:20;;;;;;;13.15;5.35;;;;;;;;;;5003823;28;20328;-58
2022/04/27 10:45:08;;;;;;;8.07;3.65;;;;;;;;;;5010364;28;20069;-58
2022/04/27 10:47:35;;;;;;;11.02;4.18;;;;;;;;;;5003831;28;20054;-58
2022/04/27 10:50:18;;;;;;;11.50;4.70;;;;;;;;;;5008411;28;20961;-58
2022/04/27 10:52:50;;;;;;;8.35;2.60;;;;;;;;;;5011310;28;20144;-58
2022/04/27 10:55:32;;;;;;;6.43;2.80;;;;;;;;;;5029046;28;20058;-60
2022/04/27 10:58:11;;;;;;;8.63;3.53;;;;;;;;;;5010742;28;20104;-59
2022/04/27 11:01:05;;;;;;;8.43;2.78;;;;;;;;;;5009266;28;20077;-58
2022/04/27 11:03:35;;;;;;;10.80;2.15;;;;;;;;;;5001884;28;20524;-58
2022/04/27 11:06:03;;;;;;;8.70;2.80;;;;;;;;;;5008329;28;20057;-58
2022/04/27 11:08:40;;;;;;;12.07;4.10;;;;;;;;;;5002453;28;20038;-58
2022/04/27 11:11:08;;;;;;;24.60;3.25;;;;;;;;;;5024765;28;20355;-58
2022/04/27 11:13:35;;;;;;;17.08;3.97;;;;;;;;;;5015568;28;20062;-58
2022/04/27 11:16:08;;;;;;;8.35;3.63;;;;;;;;;;5001714;28;20054;-59
2022/04/27 11:18:48;;;;;;;7.53;2.78;;;;;;;;;;4992939;28;20058;-61
2022/04/27 11:21:14;;;;;;;8.93;3.55;;;;;;;;;;5007870;28;20057;-61
2022/04/27 11:23:41;;;;;;;8.63;2.60;;;;;;;;;;5000939;28;20082;-59
2022/04/27 11:26:08;;;;;;;8.70;2.80;;;;;;;;;;4989603;28;20140;-59
2022/04/27 11:28:35;;;;;;;9.52;2.67;;;;;;;;;;5002894;28;20188;-59
2022/04/27 11:31:02;;;;;;;7.45;3.22;;;;;;;;;;5024934;28;20057;-60
2022/04/27 11:33:31;;;;;;;6.47;2.92;;;;;;;;;;5019668;28;20065;-58
2022/04/27 11:35:58;;;;;;;7.55;2.88;;;;;;;;;;5008746;28;20064;-59
2022/04/27 11:38:33;;;;;;;8.85;3.25;;;;;;;;;;5008352;28;20053;-60
2022/04/27 11:41:01;;;;;;;6.55;2.78;;;;;;;;;;5023492;28;20053;-58
2022/04/27 11:43:28;;;;;;;11.27;2.60;;;;;;;;;;5008357;28;20074;-59
2022/04/27 11:45:55;;;;;;;8.00;3.50;;;;;;;;;;5003762;28;20320;-59
2022/04/27 11:48:22;;;;;;;6.78;3.10;;;;;;;;;;5008573;28;20057;-58
2022/04/27 11:50:51;;;;;;;6.45;2.70;;;;;;;;;;5019237;28;20057;-60
2022/04/27 11:53:18;;;;;;;9.05;2.47;;;;;;;;;;5008141;28;20092;-58
2022/04/27 11:55:49;;;;;;;8.00;2.20;;;;;;;;;;4989182;28;20054;-60
2022/04/27 11:58:21;;;;;;;5.88;2.38;;;;;;;;;;5002469;28;20061;-59
2022/04/27 12:00:49;;;;;;;3.42;1.77;;;;;;;;;;5002533;28;20058;-60
2022/04/27 12:03:16;;;;;;;6.57;2.00;;;;;;;;;;5007714;28;20060;-59
2022/04/27 12:05:49;;;;;;;4.40;2.00;;;;;;;;;;5002396;28;20080;-60
2022/04/27 12:08:20;;;;;;;8.45;2.55;;;;;;;;;;5008184;28;20053;-59
2022/04/27 12:10:49;;;;;;;7.35;2.08;;;;;;;;;;5018204;28;20042;-59
2022/04/27 12:13:16;;;;;;;6.57;1.73;;;;;;;;;;5008506;28;20057;-59
2022/04/27 12:15:44;;;;;;;4.25;2.00;;;;;;;;;;5003784;28;20058;-59
2022/04/27 12:18:14;;;;;;;6.23;2.00;;;;;;;;;;5008216;28;20064;-59
2022/04/27 12:20:41;;;;;;;6.68;1.95;;;;;;;;;;5005542;28;20050;-59
2022/04/27 12:23:10;;;;;;;11.02;2.10;;;;;;;;;;5025905;28;20111;-59
2022/04/27 12:25:36;;;;;;;;;;;;;;;;;;5020388;28;20054;-58
2022/04/27 12:28:06;;;;;;;4.47;1.60;;;;;;;;;;5022201;28;19929;-58
2022/04/27 12:30:40;;;;;;;8.75;2.17;;;;;;;;;;5022264;28;20052;-59
2022/04/27 12:33:06;;;;;;;5.30;1.83;;;;;;;;;;4986279;28;20057;-60
2022/04/27 12:38:18;;;;;;;4.35;1.75;;;;;;;;;;4997379;28;20050;-61
2022/04/27 12:40:44;;;;;;;5.68;2.05;;;;;;;;;;4984374;28;20050;-61
2022/04/27 12:43:14;;;;;;;4.53;1.73;;;;;;;;;;4997656;28;20058;-60
2022/04/27 12:45:42;;;;;;;4.68;1.73;;;;;;;;;;4993151;28;20065;-61
2022/04/27 12:48:27;;;;;;;4.97;1.73;;;;;;;;;;5018387;28;20056;-61
2022/04/27 12:50:53;;;;;;;6.00;2.28;;;;;;;;;;5007808;28;20081;-60
2022/04/27 12:53:20;;;;;;;6.07;2.10;;;;;;;;;;5002092;28;20121;-59
2022/04/27 12:56:00;;;;;;;7.60;2.50;;;;;;;;;;5006096;28;20058;-61
2022/04/27 12:58:27;;;;;;;4.03;1.80;;;;;;;;;;5002559;28;20054;-62
2022/04/27 13:00:54;;;;;;;6.20;1.92;;;;;;;;;;5006791;28;20054;-61
2022/04/27 13:03:22;;;;;;;3.83;1.55;;;;;;;;;;5001698;28;20058;-63
2022/04/27 13:05:50;;;;;;;4.07;1.77;;;;;;;;;;5022978;28;20050;-62
2022/04/27 13:08:17;;;;;;;7.00;2.20;;;;;;;;;;5017923;28;20052;-59
2022/04/27 13:13:36;;;;;;;5.13;1.60;;;;;;;;;;5001091;28;20093;-60
2022/04/27 13:16:02;;;;;;;6.43;1.92;;;;;;;;;;5007921;28;20117;-59
2022/04/27 13:18:29;;;;;;;5.97;2.05;;;;;;;;;;5004096;28;20108;-59
2022/04/27 13:20:56;;;;;;;4.35;1.90;;;;;;;;;;5009345;28;20066;-59
2022/04/27 13:23:25;;;;;;;4.00;1.50;;;;;;;;;;5002569;28;20100;-61
2022/04/27 13:25:52;;;;;;;6.57;1.92;;;;;;;;;;5009235;28;20049;-60
2022/04/27 13:28:18;;;;;;;4.55;1.67;;;;;;;;;;5004496;28;20058;-59
2022/04/27 13:30:46;;;;;;;8.60;1.83;;;;;;;;;;5008965;28;20046;-59
2022/04/27 13:33:14;;;;;;;3.85;1.45;;;;;;;;;;5004697;28;20041;-60
2022/04/27 13:35:40;;;;;;;3.25;1.60;;;;;;;;;;5011134;28;20046;-59
2022/04/27 13:38:09;;;;;;;7.07;2.05;;;;;;;;;;5011970;28;20050;-61
2022/04/27 13:40:36;;;;;;;18.98;9.07;;;;;;;;;;5007761;28;20050;-59
2022/04/27 13:43:14;;;;;;;6.82;3.03;;;;;;;;;;5012615;28;20054;-59
2022/04/27 13:45:40;;;;;;;6.78;2.53;;;;;;;;;;5006544;28;20056;-61
2022/04/27 13:48:08;;;;;;;8.13;2.28;;;;;;;;;;5026686;28;20052;-60
2022/04/27 13:50:35;;;;;;;9.25;2.30;;;;;;;;;;5021022;28;20050;-60
2022/04/27 13:53:02;;;;;;;5.18;1.95;;;;;;;;;;5010132;28;20117;-60
2022/04/27 13:55:30;;;;;;;6.03;2.20;;;;;;;;;;5004262;28;20152;-60
2022/04/27 13:57:56;;;;;;;5.47;2.05;;;;;;;;;;5026772;28;20057;-60
2022/04/27 14:00:23;;;;;;;5.63;1.80;;;;;;;;;;5021398;28;20053;-59
2022/04/27 14:02:50;;;;;;;5.75;2.15;;;;;;;;;;5009483;28;20156;-60
2022/04/27 14:05:19;;;;;;;3.63;1.77;;;;;;;;;;4998193;28;20054;-61
2022/04/27 14:07:45;;;;;;;5.38;2.03;;;;;;;;;;5015105;28;20057;-60
2022/04/27 14:10:13;;;;;;;5.57;2.10;;;;;;;;;;5020143;28;20060;-60
2022/04/27 14:15:25;;;;;;;3.97;1.73;;;;;;;;;;5012924;28;20054;-59
2022/04/27 14:20:37;;;;;;;6.07;1.80;;;;;;;;;;4999798;28;20046;-60
2022/04/27 14:23:04;;;;;;;6.85;1.98;;;;;;;;;;5026404;28;20057;-62
2022/04/27 14:25:30;;;;;;;4.30;1.70;;;;;;;;;;5004165;28;20135;-60
2022/04/27 14:27:57;;;;;;;6.72;1.58;;;;;;;;;;5025883;28;20058;-63
2022/04/27 14:30:24;;;;;;;5.30;1.70;;;;;;;;;;5019954;28;20054;-61
2022/04/27 14:32:51;;;;;;;5.22;2.10;;;;;;;;;;5009589;28;20057;-59
2022/04/27 14:35:18;;;;;;;5.70;1.75;;;;;;;;;;5025737;28;20049;-60
2022/04/27 14:37:46;;;;;;;5.50;2.00;;;;;;;;;;5020410;28;20042;-61
2022/04/27 14:40:13;;;;;;;8.73;2.45;;;;;;;;;;5008555;28;20053;-60
2022/04/27 14:42:40;;;;;;;6.78;2.00;;;;;;;;;;5020325;28;20054;-60
2022/04/27 14:45:08;;;;;;;5.43;2.00;;;;;;;;;;5009246;28;20074;-60
2022/04/27 14:47:35;;;;;;;5.50;1.92;;;;;;;;;;5002958;28;20058;-62
2022/04/27 14:50:01;;;;;;;5.68;1.85;;;;;;;;;;5008865;28;20104;-60
2022/04/27 14:52:28;;;;;;;8.43;1.60;;;;;;;;;;5020591;28;20046;-60
2022/04/27 14:54:56;;;;;;;4.28;1.80;;;;;;;;;;5009821;28;20054;-61
2022/04/27 14:57:23;;;;;;;4.68;1.70;;;;;;;;;;5003903;28;20058;-60
2022/04/27 14:59:52;;;;;;;4.07;1.60;;;;;;;;;;5009003;28;20054;-60
2022/04/27 15:02:20;;;;;;;3.80;1.67;;;;;;;;;;5011362;28;20045;-63
2022/04/27 15:04:48;;;;;;;3.72;1.60;;;;;;;;;;5026312;28;20054;-63
2022/04/27 15:07:14;;;;;;;2.65;1.30;;;;;;;;;;5014398;28;20150;-60
2022/04/27 15:09:41;;;;;;;6.35;1.80;;;;;;;;;;5013931;28;20057;-62
2022/04/27 15:12:10;;;;;;;3.55;1.50;;;;;;;;;;5014438;28;20049;-63
2022/04/27 15:14:36;;;;;;;3.75;1.40;;;;;;;;;;4973218;28;20050;-62
2022/04/27 15:17:03;;;;;;;3.83;1.42;;;;;;;;;;5009507;28;20061;-60
2022/04/27 15:19:30;;;;;;;4.40;1.67;;;;;;;;;;4997765;28;20090;-60
2022/04/27 15:24:40;;;;;;;3.85;1.23;;;;;;;;;;5014624;28;20133;-63
2022/04/27 15:27:08;;;;;;;5.28;1.67;;;;;;;;;;5012766;28;20060;-63
2022/04/27 15:29:35;;;;;;;;;;;;;;;;;;5018126;28;20052;-62
2022/04/27 15:32:07;;;;;;;3.13;1.25;;;;;;;;;;5020930;28;19922;-63
2022/04/27 15:34:34;;;;;;;6.07;1.50;;;;;;;;;;5014459;28;20049;-62
2022/04/27 15:37:03;;;;;;;8.55;2.13;;;;;;;;;;5002245;28;20089;-61
2022/04/27 15:39:29;;;;;;;;;;;;;;;;;;5017746;28;20140;-62